Time;durP1;ratioP1;P1;durP2;ratioP2;P2;SDS_P1;SDS_P2;PMS_P1;PMS_P2;Temp;Humidity;BMP_temperature;BMP_pressure;BME280_temperature;BME280_humidity;BME280_pressure;Samples;Min_cycle;Max_cycle;Signal;HPM_P1;HPM_P2
2024/05/07 00:00:41;;;;;;;;;;;;;;;;;;5299596;27;20289;-70
2024/05/07 00:03:10;;;;;;;;;;;;;;;;;;5304781;27;20385;-70
2024/05/07 00:05:38;;;;;;;;;;;;;;;;;;5304627;27;19931;-69
2024/05/07 00:08:07;;;;;;;;;;;;;;;;;;5303561;26;19930;-68
2024/05/07 00:10:36;;;;;;;;;;;;;;;;;;5303648;27;19931;-68
2024/05/07 00:13:04;;;;;;;;;;;;;;;;;;5303501;26;19938;-69
2024/05/07 00:15:33;;;;;;;;;;;;;;;;;;5303609;27;20466;-68
2024/05/07 00:18:02;;;;;;;;;;;;;;;;;;5302471;27;19930;-68
2024/05/07 00:20:30;;;;;;;;;;;;;;;;;;5303573;26;19937;-69
2024/05/07 00:23:00;;;;;;;;;;;;;;;;;;5301497;26;19930;-68
2024/05/07 00:25:32;;;;;;;;;;;;;;;;;;5296849;27;19930;-68
2024/05/07 00:28:00;;;;;;;;;;;;;;;;;;5303351;26;19942;-68
2024/05/07 00:30:30;;;;;;;;;;;;;;;;;;5303353;27;19931;-68
2024/05/07 00:32:59;;;;;;;;;;;;;;;;;;5302840;27;19938;-68
2024/05/07 00:35:27;;;;;;;;;;;;;;;;;;5304788;27;19937;-68
2024/05/07 00:37:56;;;;;;;;;;;;;;;;;;5304201;27;19964;-68
2024/05/07 00:40:25;;;;;;;;;;;;;;;;;;5304699;26;19962;-68
2024/05/07 00:42:54;;;;;;;;;;;;;;;;;;5303510;27;19941;-68
2024/05/07 00:45:22;;;;;;;;;;;;;;;;;;5303402;27;20440;-68
2024/05/07 00:47:51;;;;;;;;;;;;;;;;;;5302469;26;19930;-68
2024/05/07 00:50:20;;;;;;;;;;;;;;;;;;5301518;27;19938;-68
2024/05/07 00:52:48;;;;;;;;;;;;;;;;;;5302472;27;19935;-68
2024/05/07 00:55:17;;;;;;;;;;;;;;;;;;5301589;27;19938;-68
2024/05/07 00:57:46;;;;;;;;;;;;;;;;;;5302662;27;19931;-68
2024/05/07 01:00:14;;;;;;;;;;;;;;;;;;5302097;27;20379;-68
2024/05/07 01:02:43;;;;;;;;;;;;;;;;;;5302676;27;19938;-68
2024/05/07 01:05:12;;;;;;;;;;;;;;;;;;5302659;26;19939;-69
2024/05/07 01:07:41;;;;;;;;;;;;;;;;;;5304435;26;19938;-69
2024/05/07 01:10:09;;;;;;;;;;;;;;;;;;5303961;27;20329;-67
2024/05/07 01:12:38;;;;;;;;;;;;;;;;;;5303916;27;19994;-67
2024/05/07 01:15:07;;;;;;;;;;;;;;;;;;5304350;26;20519;-67
2024/05/07 01:17:35;;;;;;;;;;;;;;;;;;5303054;26;20278;-67
2024/05/07 01:20:04;;;;;;;;;;;;;;;;;;5302068;26;20398;-67
2024/05/07 01:22:33;;;;;;;;;;;;;;;;;;5301670;26;20286;-68
2024/05/07 01:25:02;;;;;;;;;;;;;;;;;;5301632;26;20255;-67
2024/05/07 01:27:31;;;;;;;;;;;;;;;;;;5302231;27;19930;-68
2024/05/07 01:29:59;;;;;;;;;;;;;;;;;;5302291;27;19930;-68
2024/05/07 01:32:28;;;;;;;;;;;;;;;;;;5301829;26;19931;-68
2024/05/07 01:34:57;;;;;;;;;;;;;;;;;;5302445;27;20507;-68
2024/05/07 01:37:26;;;;;;;;;;;;;;;;;;5302694;27;20054;-68
2024/05/07 01:39:54;;;;;;;;;;;;;;;;;;5302109;27;19931;-68
2024/05/07 01:42:23;;;;;;;;;;;;;;;;;;5302631;27;20022;-68
2024/05/07 01:44:52;;;;;;;;;;;;;;;;;;5302579;26;19930;-68
2024/05/07 01:47:20;;;;;;;;;;;;;;;;;;5303654;27;19976;-68
2024/05/07 01:49:49;;;;;;;;;;;;;;;;;;5304196;26;19930;-68
2024/05/07 01:52:18;;;;;;;;;;;;;;;;;;5307369;27;19935;-68
2024/05/07 01:54:47;;;;;;;;;;;;;;;;;;5306478;27;20004;-69
2024/05/07 01:57:15;;;;;;;;;;;;;;;;;;5305667;27;20850;-69
2024/05/07 01:59:44;;;;;;;;;;;;;;;;;;5298905;27;19935;-69
2024/05/07 02:02:13;;;;;;;;;;;;;;;;;;5305569;27;19931;-68
2024/05/07 02:04:41;;;;;;;;;;;;;;;;;;5305982;26;19935;-68
2024/05/07 02:07:10;;;;;;;;;;;;;;;;;;5305525;27;19938;-68
2024/05/07 02:09:40;;;;;;;;;;;;;;;;;;5305851;27;19938;-69
2024/05/07 02:12:09;;;;;;;;;;;;;;;;;;5302247;27;20362;-68
2024/05/07 02:14:38;;;;;;;;;;;;;;;;;;5305088;26;19935;-68
2024/05/07 02:17:06;;;;;;;;;;;;;;;;;;5304660;26;19937;-68
2024/05/07 02:19:35;;;;;;;;;;;;;;;;;;5305095;27;19941;-68
2024/05/07 02:22:04;;;;;;;;;;;;;;;;;;5306349;26;19931;-68
2024/05/07 02:24:32;;;;;;;;;;;;;;;;;;5306960;26;19930;-68
2024/05/07 02:27:01;;;;;;;;;;;;;;;;;;5306674;26;20374;-68
2024/05/07 02:29:30;;;;;;;;;;;;;;;;;;5306667;27;19931;-68
2024/05/07 02:31:58;;;;;;;;;;;;;;;;;;5301836;27;19938;-68
2024/05/07 02:34:24;;;;;;;;;;;;;;;;;;5303609;27;19937;-69
2024/05/07 02:36:53;;;;;;;;;;;;;;;;;;5304729;26;20025;-69
2024/05/07 02:39:19;;;;;;;;;;;;;;;;;;5304733;27;20366;-68
2024/05/07 02:41:48;;;;;;;;;;;;;;;;;;5305207;27;20261;-68
2024/05/07 02:44:14;;;;;;;;;;;;;;;;;;5304334;26;19931;-69
2024/05/07 02:46:43;;;;;;;;;;;;;;;;;;5305393;27;20797;-69
2024/05/07 02:49:11;;;;;;;;;;;;;;;;;;5303463;27;20022;-69
2024/05/07 02:51:40;;;;;;;;;;;;;;;;;;5304924;26;19931;-69
2024/05/07 02:54:09;;;;;;;;;;;;;;;;;;5303876;27;19931;-70
2024/05/07 02:56:37;;;;;;;;;;;;;;;;;;5304500;26;20484;-69
2024/05/07 02:59:06;;;;;;;;;;;;;;;;;;5303781;26;20452;-69
2024/05/07 03:01:35;;;;;;;;;;;;;;;;;;5292636;26;19938;-68
2024/05/07 03:04:03;;;;;;;;;;;;;;;;;;5298493;27;19937;-69
2024/05/07 03:06:32;;;;;;;;;;;;;;;;;;5304821;27;19938;-69
2024/05/07 03:09:01;;;;;;;;;;;;;;;;;;5304614;27;20377;-68
2024/05/07 03:11:29;;;;;;;;;;;;;;;;;;5304792;26;19958;-68
2024/05/07 03:13:58;;;;;;;;;;;;;;;;;;5304591;26;19935;-68
2024/05/07 03:16:27;;;;;;;;;;;;;;;;;;5303876;26;19930;-69
2024/05/07 03:18:55;;;;;;;;;;;;;;;;;;5298439;26;19942;-69
2024/05/07 03:21:24;;;;;;;;;;;;;;;;;;5305771;26;19937;-69
2024/05/07 03:23:53;;;;;;;;;;;;;;;;;;5305626;26;20281;-69
2024/05/07 03:26:22;;;;;;;;;;;;;;;;;;5305977;26;20180;-69
2024/05/07 03:28:50;;;;;;;;;;;;;;;;;;5303956;27;19937;-69
2024/05/07 03:31:19;;;;;;;;;;;;;;;;;;5303631;26;19935;-69
2024/05/07 03:33:48;;;;;;;;;;;;;;;;;;5303978;26;19938;-69
2024/05/07 03:36:16;;;;;;;;;;;;;;;;;;5304110;27;19930;-69
2024/05/07 03:38:45;;;;;;;;;;;;;;;;;;5304473;26;19935;-69
2024/05/07 03:41:14;;;;;;;;;;;;;;;;;;5304586;26;19930;-68
2024/05/07 03:43:42;;;;;;;;;;;;;;;;;;5302679;27;20318;-68
2024/05/07 03:46:11;;;;;;;;;;;;;;;;;;5304078;27;20489;-67
2024/05/07 03:48:40;;;;;;;;;;;;;;;;;;5303993;27;19934;-68
2024/05/07 03:51:09;;;;;;;;;;;;;;;;;;5297154;27;19939;-68
2024/05/07 03:53:39;;;;;;;;;;;;;;;;;;5304072;27;19989;-67
2024/05/07 03:56:08;;;;;;;;;;;;;;;;;;5289361;27;19930;-67
2024/05/07 03:58:36;;;;;;;;;;;;;;;;;;5302345;27;19963;-68
2024/05/07 04:01:05;;;;;;;;;;;;;;;;;;5304048;27;19935;-67
2024/05/07 04:03:34;;;;;;;;;;;;;;;;;;5303220;26;19931;-67
2024/05/07 04:06:03;;;;;;;;;;;;;;;;;;5290605;27;19935;-68
2024/05/07 04:08:31;;;;;;;;;;;;;;;;;;5304122;26;19930;-69
2024/05/07 04:11:00;;;;;;;;;;;;;;;;;;5303845;26;19931;-69
2024/05/07 04:13:29;;;;;;;;;;;;;;;;;;5301231;27;19934;-70
2024/05/07 04:15:58;;;;;;;;;;;;;;;;;;5304031;26;19931;-68
2024/05/07 04:18:26;;;;;;;;;;;;;;;;;;5302363;26;20801;-68
2024/05/07 04:20:55;;;;;;;;;;;;;;;;;;5303508;27;20266;-68
2024/05/07 04:23:24;;;;;;;;;;;;;;;;;;5305491;26;20377;-69
2024/05/07 04:25:52;;;;;;;;;;;;;;;;;;5305456;26;19930;-69
2024/05/07 04:28:21;;;;;;;;;;;;;;;;;;5303913;26;19966;-68
2024/05/07 04:30:50;;;;;;;;;;;;;;;;;;5304071;27;19937;-69
2024/05/07 04:33:18;;;;;;;;;;;;;;;;;;5305142;27;19938;-69
2024/05/07 04:35:47;;;;;;;;;;;;;;;;;;5303566;27;19988;-68
2024/05/07 04:38:16;;;;;;;;;;;;;;;;;;5299381;27;19935;-68
2024/05/07 04:40:44;;;;;;;;;;;;;;;;;;5283726;27;19931;-68
2024/05/07 04:43:13;;;;;;;;;;;;;;;;;;5282706;27;19934;-70
2024/05/07 04:45:42;;;;;;;;;;;;;;;;;;5303076;27;19930;-71
2024/05/07 04:48:10;;;;;;;;;;;;;;;;;;5269785;27;19931;-70
2024/05/07 04:50:39;;;;;;;;;;;;;;;;;;5298444;27;19930;-70
2024/05/07 04:53:08;;;;;;;;;;;;;;;;;;5302888;26;19934;-71
2024/05/07 04:55:37;;;;;;;;;;;;;;;;;;5301854;27;20427;-71
2024/05/07 04:58:05;;;;;;;;;;;;;;;;;;5303463;26;20294;-71
2024/05/07 05:00:34;;;;;;;;;;;;;;;;;;5303465;27;20369;-70
2024/05/07 05:03:03;;;;;;;;;;;;;;;;;;5301664;27;19934;-70
2024/05/07 05:05:31;;;;;;;;;;;;;;;;;;5301276;27;19938;-70
2024/05/07 05:08:00;;;;;;;;;;;;;;;;;;5301012;26;20460;-70
2024/05/07 05:10:29;;;;;;;;;;;;;;;;;;5302942;27;20278;-71
2024/05/07 05:12:58;;;;;;;;;;;;;;;;;;5302655;27;19931;-70
2024/05/07 05:15:26;;;;;;;;;;;;;;;;;;5302056;26;19938;-71
2024/05/07 05:17:55;;;;;;;;;;;;;;;;;;5303599;26;19938;-70
2024/05/07 05:20:24;;;;;;;;;;;;;;;;;;5304397;27;19938;-70
2024/05/07 05:22:53;;;;;;;;;;;;;;;;;;5300573;27;19949;-70
2024/05/07 05:25:21;;;;;;;;;;;;;;;;;;5304791;27;20397;-69
2024/05/07 05:27:52;;;;;;;;;;;;;;;;;;5305529;27;19930;-70
2024/05/07 05:30:20;;;;;;;;;;;;;;;;;;5304469;27;19935;-70
2024/05/07 05:32:49;;;;;;;;;;;;;;;;;;5305751;26;19938;-70
2024/05/07 05:35:18;;;;;;;;;;;;;;;;;;5306416;27;19935;-70
2024/05/07 05:37:47;;;;;;;;;;;;;;;;;;5305258;26;19934;-70
2024/05/07 05:40:15;;;;;;;;;;;;;;;;;;5305792;27;20291;-70
2024/05/07 05:42:44;;;;;;;;;;;;;;;;;;5305459;27;19937;-70
2024/05/07 05:45:13;;;;;;;;;;;;;;;;;;5303966;26;19931;-71
2024/05/07 05:47:41;;;;;;;;;;;;;;;;;;5298085;26;20797;-71
2024/05/07 05:50:10;;;;;;;;;;;;;;;;;;5306225;26;19931;-70
2024/05/07 05:52:39;;;;;;;;;;;;;;;;;;5306573;26;19934;-69
2024/05/07 05:55:07;;;;;;;;;;;;;;;;;;5305857;26;19931;-69
2024/05/07 05:57:36;;;;;;;;;;;;;;;;;;5304058;26;19930;-70
2024/05/07 06:00:05;;;;;;;;;;;;;;;;;;5304012;26;19930;-72
2024/05/07 06:02:33;;;;;;;;;;;;;;;;;;5303228;27;20394;-71
2024/05/07 06:05:02;;;;;;;;;;;;;;;;;;5302012;26;20366;-72
2024/05/07 06:07:31;;;;;;;;;;;;;;;;;;5302387;26;19930;-71
2024/05/07 06:09:59;;;;;;;;;;;;;;;;;;5301767;27;20273;-73
2024/05/07 06:12:28;;;;;;;;;;;;;;;;;;5302140;26;19931;-71
2024/05/07 06:14:57;;;;;;;;;;;;;;;;;;5300685;26;19937;-73
2024/05/07 06:17:25;;;;;;;;;;;;;;;;;;5303004;26;20496;-73
2024/05/07 06:19:54;;;;;;;;;;;;;;;;;;5301189;27;19931;-72
2024/05/07 06:22:23;;;;;;;;;;;;;;;;;;5302436;26;19965;-73
2024/05/07 06:24:51;;;;;;;;;;;;;;;;;;5304855;26;19937;-73
2024/05/07 06:27:20;;;;;;;;;;;;;;;;;;5304833;26;19931;-73
2024/05/07 06:29:49;;;;;;;;;;;;;;;;;;5303771;27;19930;-72
2024/05/07 06:32:17;;;;;;;;;;;;;;;;;;5301975;26;19931;-73
2024/05/07 06:34:46;;;;;;;;;;;;;;;;;;5294432;27;19950;-73
2024/05/07 06:37:15;;;;;;;;;;;;;;;;;;5304165;26;19931;-69
2024/05/07 06:39:43;;;;;;;;;;;;;;;;;;5302361;26;19932;-72
2024/05/07 06:42:12;;;;;;;;;;;;;;;;;;5297077;26;19942;-71
2024/05/07 06:44:41;;;;;;;;;;;;;;;;;;5301196;26;19980;-72
2024/05/07 06:47:09;;;;;;;;;;;;;;;;;;5304226;27;19946;-72
2024/05/07 06:49:38;;;;;;;;;;;;;;;;;;5300638;27;19930;-71
2024/05/07 06:52:07;;;;;;;;;;;;;;;;;;5302946;26;19937;-72
2024/05/07 06:54:35;;;;;;;;;;;;;;;;;;5302141;26;20290;-71
2024/05/07 06:57:04;;;;;;;;;;;;;;;;;;5302117;27;19930;-71
2024/05/07 06:59:33;;;;;;;;;;;;;;;;;;5299810;26;19946;-71
2024/05/07 07:02:01;;;;;;;;;;;;;;;;;;5300727;27;19930;-71
2024/05/07 07:04:30;;;;;;;;;;;;;;;;;;5304659;26;19941;-71
2024/05/07 07:06:59;;;;;;;;;;;;;;;;;;5304661;26;19937;-71
2024/05/07 07:09:27;;;;;;;;;;;;;;;;;;5304290;26;19931;-71
2024/05/07 07:11:56;;;;;;;;;;;;;;;;;;5303731;27;19931;-71
2024/05/07 07:14:26;;;;;;;;;;;;;;;;;;5302873;26;19931;-71
2024/05/07 07:16:55;;;;;;;;;;;;;;;;;;5305128;27;19996;-71
2024/05/07 07:19:24;;;;;;;;;;;;;;;;;;5303515;27;19941;-72
2024/05/07 07:21:53;;;;;;;;;;;;;;;;;;5304606;27;19941;-72
2024/05/07 07:24:22;;;;;;;;;;;;;;;;;;5304528;27;20457;-71
2024/05/07 07:26:51;;;;;;;;;;;;;;;;;;5301543;26;20352;-71
2024/05/07 07:29:20;;;;;;;;;;;;;;;;;;5303432;26;19934;-72
2024/05/07 07:31:50;;;;;;;;;;;;;;;;;;5302571;27;19931;-72
2024/05/07 07:34:19;;;;;;;;;;;;;;;;;;5304562;27;19931;-71
2024/05/07 07:36:52;;;;;;;;;;;;;;;;;;5302309;27;19938;-71
2024/05/07 07:39:21;;;;;;;;;;;;;;;;;;5294461;27;20062;-72
2024/05/07 07:41:50;;;;;;;;;;;;;;;;;;5302599;27;19930;-71
2024/05/07 07:44:18;;;;;;;;;;;;;;;;;;5299292;26;19935;-71
2024/05/07 07:46:47;;;;;;;;;;;;;;;;;;5277478;27;19938;-71
2024/05/07 07:49:16;;;;;;;;;;;;;;;;;;5304356;26;19930;-72
2024/05/07 07:51:44;;;;;;;;;;;;;;;;;;5303992;26;19939;-72
2024/05/07 07:54:13;;;;;;;;;;;;;;;;;;5303217;26;19931;-71
2024/05/07 07:56:42;;;;;;;;;;;;;;;;;;5303874;27;19938;-72
2024/05/07 07:59:11;;;;;;;;;;;;;;;;;;5299026;27;19938;-72
2024/05/07 08:01:40;;;;;;;;;;;;;;;;;;5302445;27;19930;-71
2024/05/07 08:04:09;;;;;;;;;;;;;;;;;;5303246;26;20462;-71
2024/05/07 08:06:37;;;;;;;;;;;;;;;;;;5304788;27;19931;-72
2024/05/07 08:09:06;;;;;;;;;;;;;;;;;;5312656;26;19939;-72
2024/05/07 08:11:35;;;;;;;;;;;;;;;;;;5304871;26;19930;-72
2024/05/07 08:14:03;;;;;;;;;;;;;;;;;;5310402;26;19934;-71
2024/05/07 08:16:32;;;;;;;;;;;;;;;;;;5302631;26;19930;-72
2024/05/07 08:19:00;;;;;;;;;;;;;;;;;;5299669;26;20681;-72
2024/05/07 08:21:29;;;;;;;;;;;;;;;;;;5299893;27;20705;-73
2024/05/07 08:23:58;;;;;;;;;;;;;;;;;;5304925;26;20946;-73
2024/05/07 08:26:26;;;;;;;;;;;;;;;;;;5301673;27;19931;-73
2024/05/07 08:28:55;;;;;;;;;;;;;;;;;;5285473;27;19958;-73
2024/05/07 08:31:24;;;;;;;;;;;;;;;;;;5303102;27;19930;-71
2024/05/07 08:33:52;;;;;;;;;;;;;;;;;;5302839;26;20393;-70
2024/05/07 08:36:21;;;;;;;;;;;;;;;;;;5303705;26;19938;-70
2024/05/07 08:38:50;;;;;;;;;;;;;;;;;;5302356;26;19930;-69
2024/05/07 08:41:18;;;;;;;;;;;;;;;;;;5303847;27;19943;-70
2024/05/07 08:43:47;;;;;;;;;;;;;;;;;;5302268;26;19945;-70
2024/05/07 08:46:16;;;;;;;;;;;;;;;;;;5301982;27;19930;-70
2024/05/07 08:48:44;;;;;;;;;;;;;;;;;;5300162;27;19946;-70
2024/05/07 08:51:13;;;;;;;;;;;;;;;;;;5301219;27;19939;-70
2024/05/07 08:53:42;;;;;;;;;;;;;;;;;;5301860;27;19931;-70
2024/05/07 08:56:10;;;;;;;;;;;;;;;;;;5297720;26;19931;-70
2024/05/07 08:58:39;;;;;;;;;;;;;;;;;;5293044;27;20385;-71
2024/05/07 09:01:08;;;;;;;;;;;;;;;;;;5303581;27;19937;-70
2024/05/07 09:03:36;;;;;;;;;;;;;;;;;;5291726;26;22284;-70
2024/05/07 09:06:05;;;;;;;;;;;;;;;;;;5302791;27;19930;-70
2024/05/07 09:08:34;;;;;;;;;;;;;;;;;;5302401;27;20397;-71
2024/05/07 09:11:02;;;;;;;;;;;;;;;;;;5303490;27;19934;-70
2024/05/07 09:13:32;;;;;;;;;;;;;;;;;;5299832;27;19937;-69
2024/05/07 09:16:01;;;;;;;;;;;;;;;;;;5301649;27;20286;-69
2024/05/07 09:18:30;;;;;;;;;;;;;;;;;;5302132;27;19938;-68
2024/05/07 09:20:58;;;;;;;;;;;;;;;;;;5302666;26;20032;-70
2024/05/07 09:23:27;;;;;;;;;;;;;;;;;;5299094;27;19943;-69
2024/05/07 09:25:56;;;;;;;;;;;;;;;;;;5301223;27;19966;-69
2024/05/07 09:28:24;;;;;;;;;;;;;;;;;;5299705;26;20313;-70
2024/05/07 09:30:53;;;;;;;;;;;;;;;;;;5301544;27;19930;-67
2024/05/07 09:33:21;;;;;;;;;;;;;;;;;;5302749;26;20397;-69
2024/05/07 09:35:50;;;;;;;;;;;;;;;;;;5300640;27;19946;-69
2024/05/07 09:38:19;;;;;;;;;;;;;;;;;;5300957;27;19931;-69
2024/05/07 09:40:47;;;;;;;;;;;;;;;;;;5301857;26;19930;-68
2024/05/07 09:43:16;;;;;;;;;;;;;;;;;;5300355;26;19937;-69
2024/05/07 09:45:45;;;;;;;;;;;;;;;;;;5293075;26;19938;-69
2024/05/07 09:48:13;;;;;;;;;;;;;;;;;;5301169;26;19950;-70
2024/05/07 09:50:42;;;;;;;;;;;;;;;;;;5300825;26;19931;-68
2024/05/07 09:53:11;;;;;;;;;;;;;;;;;;5301044;26;19930;-69
2024/05/07 09:55:39;;;;;;;;;;;;;;;;;;5300437;26;19939;-69
2024/05/07 09:58:08;;;;;;;;;;;;;;;;;;5299974;26;19931;-69
2024/05/07 10:00:37;;;;;;;;;;;;;;;;;;5301018;27;19930;-69
2024/05/07 10:03:06;;;;;;;;;;;;;;;;;;5301635;27;19984;-70
2024/05/07 10:05:35;;;;;;;;;;;;;;;;;;5300992;27;20320;-70
2024/05/07 10:08:03;;;;;;;;;;;;;;;;;;5300916;27;19950;-71
2024/05/07 10:10:32;;;;;;;;;;;;;;;;;;5299951;27;19931;-70
2024/05/07 10:13:01;;;;;;;;;;;;;;;;;;5303516;26;19930;-70
2024/05/07 10:15:31;;;;;;;;;;;;;;;;;;5299323;27;19938;-70
2024/05/07 10:18:00;;;;;;;;;;;;;;;;;;5300776;27;20000;-70
2024/05/07 10:20:28;;;;;;;;;;;;;;;;;;5301290;27;20624;-72
2024/05/07 10:22:57;;;;;;;;;;;;;;;;;;5305745;26;19961;-71
2024/05/07 10:25:26;;;;;;;;;;;;;;;;;;5304842;26;19949;-71
2024/05/07 10:27:54;;;;;;;;;;;;;;;;;;5303641;27;19949;-71
2024/05/07 10:30:23;;;;;;;;;;;;;;;;;;5304120;26;20025;-72
2024/05/07 10:32:52;;;;;;;;;;;;;;;;;;5303890;26;19930;-71
2024/05/07 10:35:20;;;;;;;;;;;;;;;;;;5305495;27;20349;-72
2024/05/07 10:37:49;;;;;;;;;;;;;;;;;;5300905;27;19931;-72
2024/05/07 10:40:18;;;;;;;;;;;;;;;;;;5303213;26;19931;-72
2024/05/07 10:42:47;;;;;;;;;;;;;;;;;;5304231;26;20282;-71
2024/05/07 10:45:15;;;;;;;;;;;;;;;;;;5304100;27;19930;-71
2024/05/07 10:47:44;;;;;;;;;;;;;;;;;;5304683;27;19993;-71
2024/05/07 10:50:14;;;;;;;;;;;;;;;;;;5303993;27;19945;-72
2024/05/07 10:52:43;;;;;;;;;;;;;;;;;;5304515;26;19946;-72
2024/05/07 10:55:11;;;;;;;;;;;;;;;;;;5304269;27;19941;-73
2024/05/07 10:57:40;;;;;;;;;;;;;;;;;;5305187;27;19939;-71
2024/05/07 11:00:09;;;;;;;;;;;;;;;;;;5306403;27;19938;-70
2024/05/07 11:02:37;;;;;;;;;;;;;;;;;;5295571;27;19942;-70
2024/05/07 11:05:06;;;;;;;;;;;;;;;;;;5304987;26;20008;-69
2024/05/07 11:07:35;;;;;;;;;;;;;;;;;;5303644;26;19936;-71
2024/05/07 11:10:05;;;;;;;;;;;;;;;;;;5293815;27;19938;-72
2024/05/07 11:12:34;;;;;;;;;;;;;;;;;;5306904;26;19930;-71
2024/05/07 11:15:02;;;;;;;;;;;;;;;;;;5324556;26;20383;-70
2024/05/07 11:17:31;;;;;;;;;;;;;;;;;;5317210;26;19930;-70
2024/05/07 11:20:00;;;;;;;;;;;;;;;;;;5304414;26;20377;-71
2024/05/07 11:22:28;;;;;;;;;;;;;;;;;;5302538;27;20454;-69
2024/05/07 11:24:57;;;;;;;;;;;;;;;;;;5303137;26;19942;-69
2024/05/07 11:27:26;;;;;;;;;;;;;;;;;;5296737;27;20381;-72
2024/05/07 11:29:55;;;;;;;;;;;;;;;;;;5303507;26;20302;-70
2024/05/07 11:32:23;;;;;;;;;;;;;;;;;;5303901;26;20022;-69
2024/05/07 11:34:52;;;;;;;;;;;;;;;;;;5302930;27;19950;-69
2024/05/07 11:37:21;;;;;;;;;;;;;;;;;;5301240;26;19941;-68
2024/05/07 11:39:49;;;;;;;;;;;;;;;;;;5302523;26;19941;-68
2024/05/07 11:42:18;;;;;;;;;;;;;;;;;;5299036;26;19938;-69
2024/05/07 11:44:47;;;;;;;;;;;;;;;;;;5301884;27;20269;-68
2024/05/07 11:47:16;;;;;;;;;;;;;;;;;;5304279;27;19931;-68
2024/05/07 11:49:44;;;;;;;;;;;;;;;;;;5304247;26;19931;-68
2024/05/07 11:52:13;;;;;;;;;;;;;;;;;;5302982;26;19942;-68
2024/05/07 11:54:42;;;;;;;;;;;;;;;;;;5303149;27;20413;-68
2024/05/07 11:57:10;;;;;;;;;;;;;;;;;;5301694;27;19930;-69
2024/05/07 11:59:39;;;;;;;;;;;;;;;;;;5301060;27;20374;-68
2024/05/07 12:02:10;;;;;;;;;;;;;;;;;;5303467;27;20269;-69
2024/05/07 12:04:38;;;;;;;;;;;;;;;;;;5305424;27;20380;-68
2024/05/07 12:07:07;;;;;;;;;;;;;;;;;;5304641;26;19970;-69
2024/05/07 12:09:35;;;;;;;;;;;;;;;;;;5303897;27;19935;-67
2024/05/07 12:12:04;;;;;;;;;;;;;;;;;;5289532;26;19944;-70
2024/05/07 12:14:33;;;;;;;;;;;;;;;;;;5303551;27;20354;-69
2024/05/07 12:17:01;;;;;;;;;;;;;;;;;;5294797;27;19935;-70
2024/05/07 12:19:30;;;;;;;;;;;;;;;;;;5300641;27;19931;-69
2024/05/07 12:26:00;;;;;;;;;;;;;;;;;;5303998;27;20485;-68
2024/05/07 12:27:41;;;;;;;;;;;;;;;;;;5166615;27;20373;-68
2024/05/07 12:30:09;;;;;;;;;;;;;;;;;;5166804;27;20734;-68
2024/05/07 12:32:38;;;;;;;;;;;;;;;;;;5165288;27;19943;-68
2024/05/07 12:35:07;;;;;;;;;;;;;;;;;;5165676;27;19933;-68
2024/05/07 12:37:35;;;;;;;;;;;;;;;;;;5167249;27;19932;-68
2024/05/07 12:40:04;;;;;;;;;;;;;;;;;;5166230;27;19936;-68
2024/05/07 12:42:33;;;;;;;;;;;;;;;;;;5156083;27;19936;-68
2024/05/07 12:45:01;;;;;;;;;;;;;;;;;;5166217;27;19932;-68
2024/05/07 12:47:30;;;;;;;;;;;;;;;;;;5166343;27;20321;-68
2024/05/07 12:49:59;;;;;;;;;;;;;;;;;;5165825;27;19940;-69
2024/05/07 12:52:27;;;;;;;;;;;;;;;;;;5164921;27;20366;-69
2024/05/07 12:54:56;;;;;;;;;;;;;;;;;;5166505;27;19933;-68
2024/05/07 12:57:24;;;;;;;;;;;;;;;;;;5166555;27;19944;-69
2024/05/07 12:59:53;;;;;;;;;;;;;;;;;;5166634;27;19953;-69
2024/05/07 13:02:22;;;;;;;;;;;;;;;;;;5169989;27;20019;-68
2024/05/07 13:04:50;;;;;;;;;;;;;;;;;;5303290;27;19930;-69
2024/05/07 13:07:19;;;;;;;;;;;;;;;;;;5294320;27;19938;-68
2024/05/07 13:09:48;;;;;;;;;;;;;;;;;;5283780;26;19931;-69
2024/05/07 13:12:16;;;;;;;;;;;;;;;;;;5302119;26;19931;-69
2024/05/07 13:14:45;;;;;;;;;;;;;;;;;;5305829;26;20337;-68
2024/05/07 13:17:14;;;;;;;;;;;;;;;;;;5302528;27;19937;-68
2024/05/07 13:19:42;;;;;;;;;;;;;;;;;;5302377;26;19935;-69
2024/05/07 13:22:11;;;;;;;;;;;;;;;;;;5303250;26;19937;-69
2024/05/07 13:24:40;;;;;;;;;;;;;;;;;;5304520;27;19931;-69
2024/05/07 13:27:08;;;;;;;;;;;;;;;;;;5304107;26;20038;-69
2024/05/07 13:29:37;;;;;;;;;;;;;;;;;;5302499;26;19941;-69
2024/05/07 13:32:06;;;;;;;;;;;;;;;;;;5302855;26;20281;-68
2024/05/07 13:34:35;;;;;;;;;;;;;;;;;;5301386;27;20377;-70
2024/05/07 13:37:03;;;;;;;;;;;;;;;;;;5284403;27;19931;-69
2024/05/07 13:39:32;;;;;;;;;;;;;;;;;;5302530;27;19934;-69
2024/05/07 13:42:01;;;;;;;;;;;;;;;;;;5300893;27;19938;-69
2024/05/07 13:44:29;;;;;;;;;;;;;;;;;;5274868;27;20330;-72
2024/05/07 13:46:58;;;;;;;;;;;;;;;;;;5304878;26;19934;-70
2024/05/07 13:49:27;;;;;;;;;;;;;;;;;;5305121;27;19941;-69
2024/05/07 13:51:56;;;;;;;;;;;;;;;;;;5302488;27;20409;-70
2024/05/07 13:54:24;;;;;;;;;;;;;;;;;;5304080;26;19930;-69
2024/05/07 13:56:53;;;;;;;;;;;;;;;;;;5304372;27;19930;-70
2024/05/07 13:59:22;;;;;;;;;;;;;;;;;;5304025;27;19930;-70
2024/05/07 14:01:50;;;;;;;;;;;;;;;;;;5301468;27;19930;-70
2024/05/07 14:04:19;;;;;;;;;;;;;;;;;;5302427;26;19938;-71
2024/05/07 14:06:48;;;;;;;;;;;;;;;;;;5302878;27;20339;-71
2024/05/07 14:09:16;;;;;;;;;;;;;;;;;;5302769;27;20362;-71
2024/05/07 14:11:45;;;;;;;;;;;;;;;;;;5302678;27;19931;-72
2024/05/07 14:14:14;;;;;;;;;;;;;;;;;;5305144;27;20050;-72
2024/05/07 14:16:42;;;;;;;;;;;;;;;;;;5305646;27;20042;-72
2024/05/07 14:19:11;;;;;;;;;;;;;;;;;;5304298;26;19934;-72
2024/05/07 14:21:40;;;;;;;;;;;;;;;;;;5302156;27;20532;-72
2024/05/07 14:24:08;;;;;;;;;;;;;;;;;;5301763;27;19984;-71
2024/05/07 14:26:38;;;;;;;;;;;;;;;;;;5302370;27;19931;-71
2024/05/07 14:29:07;;;;;;;;;;;;;;;;;;5303543;27;19934;-73
2024/05/07 14:31:35;;;;;;;;;;;;;;;;;;5305503;26;19937;-72
2024/05/07 14:34:04;;;;;;;;;;;;;;;;;;5302500;27;20016;-72
2024/05/07 14:36:33;;;;;;;;;;;;;;;;;;5301732;26;19941;-72
2024/05/07 14:39:01;;;;;;;;;;;;;;;;;;5303562;26;20060;-71
2024/05/07 14:41:30;;;;;;;;;;;;;;;;;;5304490;27;19938;-72
2024/05/07 14:43:59;;;;;;;;;;;;;;;;;;5304520;27;19934;-73
2024/05/07 14:46:27;;;;;;;;;;;;;;;;;;5304462;27;19930;-72
2024/05/07 14:48:56;;;;;;;;;;;;;;;;;;5302704;26;20435;-71
2024/05/07 14:51:25;;;;;;;;;;;;;;;;;;5304727;26;19937;-71
2024/05/07 14:53:53;;;;;;;;;;;;;;;;;;5303820;27;19931;-71
2024/05/07 14:56:22;;;;;;;;;;;;;;;;;;5303266;26;19931;-71
2024/05/07 14:58:51;;;;;;;;;;;;;;;;;;5300533;27;20270;-73
2024/05/07 15:01:19;;;;;;;;;;;;;;;;;;5303106;27;20286;-73
2024/05/07 15:03:48;;;;;;;;;;;;;;;;;;5302137;26;19930;-72
2024/05/07 15:06:14;;;;;;;;;;;;;;;;;;5302350;26;19953;-73
2024/05/07 15:08:43;;;;;;;;;;;;;;;;;;5300443;26;20377;-73
2024/05/07 15:11:11;;;;;;;;;;;;;;;;;;5301441;27;19939;-73
2024/05/07 15:13:40;;;;;;;;;;;;;;;;;;5300814;26;19949;-72
2024/05/07 15:16:08;;;;;;;;;;;;;;;;;;5301921;26;19930;-72
2024/05/07 15:18:37;;;;;;;;;;;;;;;;;;5301488;27;19930;-73
2024/05/07 15:21:06;;;;;;;;;;;;;;;;;;5302337;26;19941;-72
2024/05/07 15:23:34;;;;;;;;;;;;;;;;;;5302896;27;19931;-73
2024/05/07 15:26:03;;;;;;;;;;;;;;;;;;5302155;27;19931;-72
2024/05/07 15:28:29;;;;;;;;;;;;;;;;;;5303445;26;19941;-70
2024/05/07 15:30:59;;;;;;;;;;;;;;;;;;5299817;26;19937;-70
2024/05/07 15:33:27;;;;;;;;;;;;;;;;;;5302872;26;19939;-68
2024/05/07 15:35:56;;;;;;;;;;;;;;;;;;5301318;27;19931;-68
2024/05/07 15:38:24;;;;;;;;;;;;;;;;;;5301398;26;19946;-68
2024/05/07 15:40:53;;;;;;;;;;;;;;;;;;5301553;27;20293;-66
2024/05/07 15:43:22;;;;;;;;;;;;;;;;;;5301894;26;19938;-69
2024/05/07 15:45:50;;;;;;;;;;;;;;;;;;5302548;27;19939;-67
2024/05/07 15:48:20;;;;;;;;;;;;;;;;;;5303254;26;19931;-67
2024/05/07 15:50:49;;;;;;;;;;;;;;;;;;5302011;26;20278;-68
2024/05/07 15:53:18;;;;;;;;;;;;;;;;;;5299207;26;19942;-68
2024/05/07 15:55:46;;;;;;;;;;;;;;;;;;5301041;26;19931;-68
2024/05/07 15:58:15;;;;;;;;;;;;;;;;;;5302538;26;19938;-68
2024/05/07 16:00:44;;;;;;;;;;;;;;;;;;5298854;26;19938;-68
2024/05/07 16:03:12;;;;;;;;;;;;;;;;;;5297601;26;19937;-68
2024/05/07 16:05:41;;;;;;;;;;;;;;;;;;5271219;27;20279;-69
2024/05/07 16:08:10;;;;;;;;;;;;;;;;;;5294500;27;20267;-69
2024/05/07 16:10:38;;;;;;;;;;;;;;;;;;5301994;26;20377;-68
2024/05/07 16:13:07;;;;;;;;;;;;;;;;;;5301904;26;19942;-68
2024/05/07 16:15:36;;;;;;;;;;;;;;;;;;5300657;27;20001;-69
2024/05/07 16:18:04;;;;;;;;;;;;;;;;;;5294169;26;20141;-69
2024/05/07 16:20:33;;;;;;;;;;;;;;;;;;5303465;26;19930;-69
2024/05/07 16:23:04;;;;;;;;;;;;;;;;;;5304925;26;19930;-69
2024/05/07 16:25:32;;;;;;;;;;;;;;;;;;5300003;27;19938;-69
2024/05/07 16:28:01;;;;;;;;;;;;;;;;;;5300612;26;19942;-69
2024/05/07 16:30:30;;;;;;;;;;;;;;;;;;5293867;26;19938;-69
2024/05/07 16:32:59;;;;;;;;;;;;;;;;;;5298495;26;19935;-70
2024/05/07 16:35:28;;;;;;;;;;;;;;;;;;5301302;26;19934;-69
2024/05/07 16:37:56;;;;;;;;;;;;;;;;;;5302216;26;19941;-68
2024/05/07 16:40:25;;;;;;;;;;;;;;;;;;5301532;26;20476;-69
2024/05/07 16:42:54;;;;;;;;;;;;;;;;;;5300161;27;19945;-69
2024/05/07 16:45:22;;;;;;;;;;;;;;;;;;5299761;27;19930;-67
2024/05/07 16:47:51;;;;;;;;;;;;;;;;;;5295159;27;19930;-71
2024/05/07 16:50:21;;;;;;;;;;;;;;;;;;5300405;27;19930;-68
2024/05/07 16:52:50;;;;;;;;;;;;;;;;;;5299626;27;19941;-69
2024/05/07 16:55:18;;;;;;;;;;;;;;;;;;5295358;27;20004;-69
2024/05/07 16:57:47;;;;;;;;;;;;;;;;;;5293292;27;19946;-68